createdAt,value
2022-08-25T00:00:21.719Z,35.83
2022-08-25T00:02:56.461Z,36.25
2022-08-25T00:05:29.375Z,35.81
2022-08-25T00:08:02.449Z,35.61
2022-08-25T00:10:32.048Z,36.15
2022-08-25T00:13:01.706Z,36.31
2022-08-25T00:15:32.190Z,36.42
2022-08-25T00:18:01.034Z,37.06
2022-08-25T00:20:32.796Z,36.96
2022-08-25T00:23:01.439Z,36.90
2022-08-25T00:25:29.946Z,37.82
2022-08-25T00:27:59.005Z,37.37
2022-08-25T00:30:27.428Z,36.57
2022-08-25T00:32:57.547Z,37.29
2022-08-25T00:35:26.878Z,37.68
2022-08-25T00:37:55.495Z,37.14
2022-08-25T00:40:25.430Z,36.52
2022-08-25T00:42:54.624Z,36.53
2022-08-25T00:45:23.796Z,36.65
2022-08-25T00:47:52.572Z,36.68
2022-08-25T00:50:22.580Z,36.42
2022-08-25T00:52:58.125Z,35.99
2022-08-25T00:55:29.333Z,35.78
2022-08-25T00:58:11.606Z,35.89
2022-08-25T01:00:45.044Z,36.52
2022-08-25T01:03:13.565Z,36.38
2022-08-25T01:05:43.693Z,36.97
2022-08-25T01:08:13.191Z,37.22
2022-08-25T01:10:46.253Z,36.75
2022-08-25T01:13:26.573Z,37.03
2022-08-25T01:15:56.676Z,37.17
2022-08-25T01:18:28.314Z,37.41
2022-08-25T01:20:59.992Z,37.06
2022-08-25T01:23:28.305Z,36.85
2022-08-25T01:26:05.332Z,36.81
2022-08-25T01:28:35.162Z,36.89
2022-08-25T01:31:04.946Z,36.97
2022-08-25T01:33:52.811Z,37.20
2022-08-25T01:36:22.842Z,37.21
2022-08-25T01:38:51.563Z,37.48
2022-08-25T01:41:51.366Z,37.38
2022-08-25T01:44:20.409Z,37.45
2022-08-25T01:46:48.886Z,37.31
2022-08-25T01:49:17.249Z,36.64
2022-08-25T01:51:55.721Z,36.88
2022-08-25T01:54:24.254Z,36.69
2022-08-25T01:56:52.745Z,36.59
2022-08-25T01:59:24.256Z,36.48
2022-08-25T02:01:59.626Z,35.62
2022-08-25T02:04:32.214Z,36.23
2022-08-25T02:07:03.863Z,36.45
2022-08-25T02:09:32.539Z,36.37
2022-08-25T02:12:01.215Z,36.26
2022-08-25T02:14:29.942Z,36.06
2022-08-25T02:16:58.489Z,36.17
2022-08-25T02:19:27.694Z,35.94
2022-08-25T02:21:56.210Z,36.77
2022-08-25T02:24:24.719Z,36.21
2022-08-25T02:26:53.215Z,36.21
2022-08-25T02:29:21.667Z,36.05
2022-08-25T02:31:50.216Z,36.14
2022-08-25T02:34:18.780Z,36.22
2022-08-25T02:36:47.173Z,36.73
2022-08-25T02:39:15.658Z,36.27
2022-08-25T02:41:44.192Z,36.47
2022-08-25T02:44:12.608Z,36.42
2022-08-25T02:46:41.128Z,36.04
2022-08-25T02:49:09.786Z,35.77
2022-08-25T02:51:38.303Z,36.07
2022-08-25T02:54:07.090Z,35.73
2022-08-25T02:56:35.669Z,36.31
2022-08-25T02:59:04.663Z,36.22
2022-08-25T03:01:33.231Z,35.89
2022-08-25T03:04:02.237Z,35.69
2022-08-25T03:06:31.022Z,35.70
2022-08-25T03:08:59.503Z,35.76
2022-08-25T03:11:28.731Z,35.51
2022-08-25T03:13:57.554Z,35.57
2022-08-25T03:16:27.658Z,35.65
2022-08-25T03:18:56.799Z,35.71
2022-08-25T03:21:26.971Z,35.69
2022-08-25T03:23:56.619Z,35.97
2022-08-25T03:26:44.161Z,35.92
2022-08-25T03:29:13.828Z,35.57
2022-08-25T03:31:44.728Z,35.80
2022-08-25T03:34:16.833Z,35.83
2022-08-25T03:36:48.373Z,35.77
2022-08-25T03:39:18.046Z,35.73
2022-08-25T03:41:49.990Z,35.59
2022-08-25T03:44:20.104Z,35.42
2022-08-25T03:46:51.931Z,35.63
2022-08-25T03:49:22.661Z,35.39
2022-08-25T03:51:53.282Z,35.52
2022-08-25T03:54:24.821Z,35.02
2022-08-25T03:56:54.125Z,35.49
2022-08-25T03:59:22.695Z,35.21
2022-08-25T04:01:55.219Z,35.24
2022-08-25T04:04:24.389Z,35.25
2022-08-25T04:06:53.085Z,35.25
2022-08-25T04:09:22.528Z,35.27
2022-08-25T04:11:53.173Z,35.19
2022-08-25T04:14:23.371Z,35.16
2022-08-25T04:16:52.977Z,35.12
2022-08-25T04:19:21.939Z,35.08
2022-08-25T04:21:51.500Z,34.99
2022-08-25T04:24:25.087Z,35.22
2022-08-25T04:26:53.702Z,35.19
2022-08-25T04:29:24.470Z,35.42
2022-08-25T04:31:54.706Z,35.24
2022-08-25T04:34:29.531Z,35.38
2022-08-25T04:37:05.477Z,35.49
2022-08-25T04:39:35.018Z,35.69
2022-08-25T04:42:04.065Z,35.49
2022-08-25T04:44:32.523Z,35.50
2022-08-25T04:47:01.098Z,35.22
2022-08-25T04:49:29.686Z,35.07
2022-08-25T04:51:58.155Z,35.20
2022-08-25T04:54:28.089Z,35.40
2022-08-25T04:56:58.550Z,35.25
2022-08-25T04:59:29.330Z,35.23
2022-08-25T05:02:02.467Z,35.14
2022-08-25T05:04:32.558Z,35.04
2022-08-25T05:07:01.398Z,35.05
2022-08-25T05:09:32.611Z,34.92
2022-08-25T05:12:02.839Z,35.17
2022-08-25T05:14:32.426Z,34.99
2022-08-25T05:17:01.081Z,35.14
2022-08-25T05:19:29.847Z,34.93
2022-08-25T05:21:58.447Z,34.68
2022-08-25T05:24:27.919Z,34.48
2022-08-25T05:26:57.098Z,34.17
2022-08-25T05:29:26.492Z,33.98
2022-08-25T05:31:54.961Z,33.82
2022-08-25T05:34:24.795Z,33.82
2022-08-25T05:36:53.265Z,33.79
2022-08-25T05:39:21.761Z,33.50
2022-08-25T05:41:50.159Z,33.56
2022-08-25T05:44:21.220Z,33.40
2022-08-25T05:46:50.446Z,33.48
2022-08-25T05:49:19.112Z,33.27
2022-08-25T05:51:47.626Z,33.24
2022-08-25T05:54:16.227Z,33.05
2022-08-25T05:56:45.473Z,33.33
2022-08-25T05:59:13.959Z,33.45
2022-08-25T06:02:01.193Z,33.49
2022-08-25T06:04:29.729Z,33.14
2022-08-25T06:06:58.233Z,33.39
2022-08-25T06:09:26.829Z,33.16
2022-08-25T06:11:55.563Z,33.10
2022-08-25T06:14:24.617Z,32.97
2022-08-25T06:16:53.165Z,32.77
2022-08-25T06:19:23.352Z,32.64
2022-08-25T06:21:56.839Z,32.69
2022-08-25T06:24:27.210Z,32.54
2022-08-25T06:26:56.799Z,32.45
2022-08-25T06:29:26.148Z,32.13
2022-08-25T06:31:54.841Z,32.52
2022-08-25T06:34:23.934Z,32.11
2022-08-25T06:36:53.020Z,32.01
2022-08-25T06:39:21.995Z,31.83
2022-08-25T06:41:52.866Z,32.10
2022-08-25T06:44:22.284Z,32.05
2022-08-25T06:46:51.279Z,31.96
2022-08-25T06:49:20.337Z,31.79
2022-08-25T06:51:50.193Z,31.74
2022-08-25T06:54:18.756Z,32.26
2022-08-25T06:56:49.670Z,31.91
2022-08-25T06:59:18.814Z,31.86
2022-08-25T07:01:49.511Z,31.61
2022-08-25T07:04:18.804Z,31.34
2022-08-25T07:06:47.881Z,31.70
2022-08-25T07:09:17.306Z,31.32
2022-08-25T07:11:46.628Z,31.88
2022-08-25T07:14:17.304Z,31.49
2022-08-25T07:16:49.627Z,31.37
2022-08-25T07:19:20.795Z,31.24
2022-08-25T07:21:52.642Z,31.42
2022-08-25T07:24:22.419Z,31.56
2022-08-25T07:26:51.548Z,31.46
2022-08-25T07:29:32.611Z,31.45
2022-08-25T07:32:02.507Z,31.46
2022-08-25T07:34:52.424Z,31.20
2022-08-25T07:37:45.441Z,31.19
2022-08-25T07:40:36.117Z,31.45
2022-08-25T07:43:08.250Z,31.08
2022-08-25T07:45:46.866Z,30.93
2022-08-25T07:48:20.061Z,30.54
2022-08-25T07:50:49.355Z,30.47
2022-08-25T07:53:18.166Z,30.02
2022-08-25T07:55:47.252Z,30.13
2022-08-25T07:58:15.912Z,30.05
2022-08-25T08:00:48.063Z,30.10
2022-08-25T08:03:35.155Z,30.03
2022-08-25T08:06:09.934Z,30.03
2022-08-25T08:08:45.478Z,29.51
2022-08-25T08:11:22.625Z,29.91
2022-08-25T08:13:54.156Z,29.43
2022-08-25T08:16:25.778Z,28.13
2022-08-25T08:18:54.452Z,29.13
2022-08-25T08:21:28.907Z,28.95
2022-08-25T08:23:59.391Z,28.61
2022-08-25T08:26:48.160Z,28.69
2022-08-25T08:29:17.218Z,28.61
2022-08-25T08:31:48.456Z,28.70
2022-08-25T08:34:18.061Z,28.71
2022-08-25T08:36:46.444Z,28.50
2022-08-25T08:39:15.028Z,28.59
2022-08-25T08:42:17.432Z,28.30
2022-08-25T08:44:46.026Z,28.88
2022-08-25T08:47:39.154Z,28.77
2022-08-25T08:50:32.330Z,27.92
2022-08-25T08:53:19.648Z,28.74
2022-08-25T08:56:06.842Z,28.21
2022-08-25T08:58:52.866Z,28.12
2022-08-25T09:01:30.846Z,27.92
2022-08-25T09:04:14.500Z,28.05
2022-08-25T09:06:49.274Z,27.84
2022-08-25T09:09:28.677Z,27.92
2022-08-25T09:12:31.565Z,26.70
2022-08-25T09:15:13.470Z,26.95
2022-08-25T09:18:12.691Z,27.32
2022-08-25T09:21:03.120Z,27.00
2022-08-25T09:23:42.755Z,26.92
2022-08-25T09:26:30.229Z,26.59
2022-08-25T09:29:02.218Z,26.75
2022-08-25T09:31:39.608Z,25.91
2022-08-25T09:34:16.671Z,26.00
2022-08-25T09:36:48.592Z,26.10
2022-08-25T09:39:17.936Z,25.97
2022-08-25T09:41:52.670Z,25.00
2022-08-25T09:44:27.373Z,25.33
2022-08-25T09:47:01.699Z,25.04
2022-08-25T09:49:37.886Z,25.67
2022-08-25T09:52:26.292Z,24.36
2022-08-25T09:54:56.887Z,25.58
2022-08-25T09:57:36.048Z,25.05
2022-08-25T10:00:18.596Z,25.13
2022-08-25T10:03:11.296Z,23.96
2022-08-25T10:05:57.476Z,25.01
2022-08-25T10:08:53.231Z,24.89
2022-08-25T10:11:35.086Z,24.97
2022-08-25T10:14:20.302Z,24.97
2022-08-25T10:16:49.824Z,23.76
2022-08-25T10:19:21.362Z,24.57
2022-08-25T10:22:20.563Z,24.50
2022-08-25T10:24:49.392Z,24.71
2022-08-25T10:27:33.126Z,24.97
2022-08-25T10:31:03.886Z,23.39
2022-08-25T10:34:08.205Z,24.10
2022-08-25T10:37:10.885Z,24.10
2022-08-25T10:39:46.026Z,23.48
2022-08-25T10:42:30.522Z,23.97
2022-08-25T10:45:43.586Z,23.66
2022-08-25T10:48:18.960Z,23.58
2022-08-25T10:51:03.363Z,23.41
2022-08-25T10:53:59.809Z,23.78
2022-08-25T10:56:40.749Z,22.56
2022-08-25T10:59:28.233Z,22.01
2022-08-25T11:02:33.952Z,22.48
2022-08-25T11:05:24.742Z,21.80
2022-08-25T11:08:11.785Z,22.83
2022-08-25T11:11:10.025Z,22.62
2022-08-25T11:13:48.091Z,22.39
2022-08-25T11:16:36.399Z,22.23
2022-08-25T11:19:15.799Z,21.97
2022-08-25T11:21:52.084Z,21.95
2022-08-25T11:24:38.734Z,20.60
2022-08-25T11:27:15.758Z,21.19
2022-08-25T11:29:58.074Z,21.44
2022-08-25T11:32:26.887Z,21.01
2022-08-25T11:34:55.386Z,20.08
2022-08-25T11:37:29.703Z,20.27
2022-08-25T11:40:08.806Z,19.97
2022-08-25T11:43:01.700Z,19.99
2022-08-25T11:45:36.220Z,20.72
2022-08-25T11:48:41.004Z,20.77
2022-08-25T11:51:12.474Z,19.98
2022-08-25T11:53:43.172Z,19.41
2022-08-25T11:56:31.989Z,21.21
2022-08-25T11:59:01.227Z,20.34
2022-08-25T12:01:44.925Z,20.66
2022-08-25T12:04:45.166Z,19.37
2022-08-25T12:07:20.566Z,21.08
2022-08-25T12:09:50.478Z,19.91
2022-08-25T12:12:57.572Z,20.30
2022-08-25T12:15:32.644Z,19.87
2022-08-25T12:18:09.252Z,18.99
2022-08-25T12:20:53.274Z,20.36
2022-08-25T12:23:32.765Z,19.76
2022-08-25T12:26:08.808Z,19.00
2022-08-25T12:29:21.474Z,20.38
2022-08-25T12:32:04.428Z,19.85
2022-08-25T12:34:52.787Z,19.22
2022-08-25T12:37:24.216Z,19.18
2022-08-25T12:40:01.582Z,19.76
2022-08-25T12:42:32.455Z,19.68
2022-08-25T12:45:10.769Z,19.27
2022-08-25T12:47:43.020Z,19.48
2022-08-25T12:50:33.356Z,19.01
2022-08-25T12:53:32.342Z,19.28
2022-08-25T12:56:27.512Z,19.88
2022-08-25T12:59:02.314Z,20.14
2022-08-25T13:01:52.567Z,19.34
2022-08-25T13:04:30.283Z,19.48
2022-08-25T13:07:07.849Z,19.75
2022-08-25T13:09:58.548Z,19.66
2022-08-25T13:12:51.068Z,18.69
2022-08-25T13:15:35.832Z,19.57
2022-08-25T13:18:28.757Z,18.84
2022-08-25T13:21:18.660Z,18.78
2022-08-25T13:23:54.074Z,19.42
2022-08-25T13:26:47.266Z,19.60
2022-08-25T13:29:49.631Z,19.32
2022-08-25T13:32:27.125Z,19.91
2022-08-25T13:35:32.890Z,19.96
2022-08-25T13:38:15.193Z,19.46
2022-08-25T13:40:43.677Z,19.11
2022-08-25T13:43:14.206Z,19.17
2022-08-25T13:45:46.459Z,19.15
2022-08-25T13:48:49.290Z,19.57
2022-08-25T13:51:31.580Z,19.28
2022-08-25T13:54:05.747Z,18.71
2022-08-25T13:56:38.810Z,19.02
2022-08-25T13:59:30.912Z,19.37
2022-08-25T14:02:00.087Z,18.22
2022-08-25T14:04:32.951Z,18.58
2022-08-25T14:07:19.609Z,18.94
2022-08-25T14:09:52.244Z,18.89
2022-08-25T14:12:41.846Z,18.99
2022-08-25T14:15:27.394Z,19.23
2022-08-25T14:18:03.892Z,19.67
2022-08-25T14:20:33.846Z,18.92
2022-08-25T14:23:10.217Z,18.93
2022-08-25T14:25:40.760Z,19.42
2022-08-25T14:28:15.955Z,19.38
2022-08-25T14:30:58.392Z,19.38
2022-08-25T14:33:33.100Z,19.36
2022-08-25T14:36:04.626Z,19.03
2022-08-25T14:38:35.205Z,18.76
2022-08-25T14:41:03.652Z,18.90
2022-08-25T14:43:32.432Z,19.04
2022-08-25T14:46:10.564Z,19.03
2022-08-25T14:48:46.899Z,19.11
2022-08-25T14:51:17.894Z,19.67
2022-08-25T14:53:47.489Z,19.08
2022-08-25T14:56:16.431Z,19.44
2022-08-25T14:58:48.402Z,18.51
2022-08-25T15:01:29.242Z,18.32
2022-08-25T15:04:06.591Z,18.97
2022-08-25T15:06:36.659Z,19.50
2022-08-25T15:09:11.466Z,19.12
2022-08-25T15:11:46.554Z,19.15
2022-08-25T15:14:19.014Z,18.97
2022-08-25T15:16:57.964Z,18.92
2022-08-25T15:19:27.219Z,19.04
2022-08-25T15:21:58.086Z,18.72
2022-08-25T15:24:28.734Z,19.06
2022-08-25T15:27:03.836Z,18.85
2022-08-25T15:29:34.917Z,19.10
2022-08-25T15:32:07.020Z,19.17
2022-08-25T15:34:36.743Z,19.31
2022-08-25T15:37:13.426Z,19.32
2022-08-25T15:39:44.889Z,19.28
2022-08-25T15:42:13.875Z,18.70
2022-08-25T15:44:52.774Z,19.00
2022-08-25T15:47:24.025Z,19.63
2022-08-25T15:50:04.657Z,18.78
2022-08-25T15:52:46.647Z,18.48
2022-08-25T15:55:17.757Z,19.13
2022-08-25T15:57:49.642Z,18.55
2022-08-25T16:00:18.767Z,18.67
2022-08-25T16:02:47.746Z,18.89
2022-08-25T16:05:16.764Z,18.77
2022-08-25T16:07:51.521Z,18.97
2022-08-25T16:10:20.533Z,18.74
2022-08-25T16:12:50.458Z,18.87
2022-08-25T16:15:24.011Z,18.93
2022-08-25T16:18:00.328Z,19.61
2022-08-25T16:20:30.928Z,19.53
2022-08-25T16:23:02.429Z,19.48
2022-08-25T16:25:32.554Z,19.53
2022-08-25T16:28:01.222Z,19.37
2022-08-25T16:30:29.740Z,19.20
2022-08-25T16:32:58.252Z,19.33
2022-08-25T16:35:28.003Z,19.48
2022-08-25T16:37:57.903Z,19.50
2022-08-25T16:40:26.624Z,19.50
2022-08-25T16:42:55.327Z,19.59
2022-08-25T16:45:24.035Z,19.55
2022-08-25T16:47:52.450Z,19.24
2022-08-25T16:50:20.974Z,19.37
2022-08-25T16:53:08.209Z,19.59
2022-08-25T16:55:38.993Z,19.42
2022-08-25T16:58:13.513Z,19.50
2022-08-25T17:00:44.618Z,19.55
2022-08-25T17:03:13.287Z,19.43
2022-08-25T17:05:43.120Z,19.42
2022-08-25T17:08:30.576Z,19.70
2022-08-25T17:11:12.381Z,19.30
2022-08-25T17:13:44.546Z,19.43
2022-08-25T17:16:14.576Z,19.24
2022-08-25T17:18:43.640Z,19.56
2022-08-25T17:21:24.515Z,19.45
2022-08-25T17:23:57.858Z,19.68
2022-08-25T17:26:30.023Z,19.47
2022-08-25T17:29:01.045Z,19.88
2022-08-25T17:31:30.753Z,19.76
2022-08-25T17:33:59.359Z,19.97
2022-08-25T17:36:28.491Z,20.13
2022-08-25T17:38:57.245Z,20.15
2022-08-25T17:41:25.976Z,20.15
2022-08-25T17:43:54.536Z,20.25
2022-08-25T17:46:23.999Z,19.94
2022-08-25T17:48:53.721Z,20.56
2022-08-25T17:51:22.941Z,20.08
2022-08-25T17:53:52.785Z,20.35
2022-08-25T17:56:23.469Z,20.67
2022-08-25T17:58:55.845Z,20.54
2022-08-25T18:01:27.912Z,20.60
2022-08-25T18:03:57.416Z,20.75
2022-08-25T18:06:29.515Z,20.74
2022-08-25T18:09:01.389Z,20.40
2022-08-25T18:11:30.243Z,20.55
2022-08-25T18:13:59.193Z,20.56
2022-08-25T18:16:28.392Z,20.42
2022-08-25T18:18:57.215Z,20.59
2022-08-25T18:21:30.422Z,21.60
2022-08-25T18:23:59.778Z,22.18
2022-08-25T18:26:28.404Z,22.29
2022-08-25T18:28:57.102Z,22.60
2022-08-25T18:31:25.970Z,24.53
2022-08-25T18:33:54.819Z,28.60
2022-08-25T18:36:23.327Z,29.07
2022-08-25T18:39:10.256Z,28.96
2022-08-25T18:41:41.349Z,30.81
2022-08-25T18:44:11.007Z,31.76
2022-08-25T18:46:42.055Z,32.07
2022-08-25T18:49:10.910Z,31.88
2022-08-25T18:51:45.531Z,31.90
2022-08-25T18:54:23.440Z,34.45
2022-08-25T18:56:53.328Z,34.48
2022-08-25T18:59:24.113Z,34.68
2022-08-25T19:01:53.827Z,35.55
2022-08-25T19:04:31.482Z,34.15
2022-08-25T19:07:01.483Z,36.42
2022-08-25T19:09:30.933Z,36.84
2022-08-25T19:11:59.852Z,35.93
2022-08-25T19:14:28.700Z,38.16
2022-08-25T19:16:58.625Z,36.61
2022-08-25T19:19:28.017Z,36.57
2022-08-25T19:21:58.077Z,37.93
2022-08-25T19:24:28.533Z,38.11
2022-08-25T19:26:58.216Z,39.56
2022-08-25T19:29:26.838Z,38.87
2022-08-25T19:32:01.227Z,38.47
2022-08-25T19:34:35.020Z,39.89
2022-08-25T19:37:04.596Z,39.17
2022-08-25T19:39:35.296Z,39.84
2022-08-25T19:42:08.915Z,38.97
2022-08-25T19:44:57.631Z,39.61
2022-08-25T19:47:26.173Z,39.63
2022-08-25T19:49:55.080Z,40.84
2022-08-25T19:52:24.838Z,42.30
2022-08-25T19:54:55.118Z,41.87
2022-08-25T19:57:28.555Z,45.47
2022-08-25T20:00:16.856Z,44.96
2022-08-25T20:02:47.296Z,45.10
2022-08-25T20:05:23.525Z,45.04
2022-08-25T20:07:54.158Z,45.53
2022-08-25T20:10:25.580Z,47.59
2022-08-25T20:12:55.601Z,45.99
2022-08-25T20:15:24.581Z,46.89
2022-08-25T20:17:56.400Z,47.96
2022-08-25T20:20:25.514Z,46.68
2022-08-25T20:23:20.645Z,47.94
2022-08-25T20:25:51.246Z,47.60
2022-08-25T20:28:19.689Z,48.07
2022-08-25T20:30:48.198Z,48.72
2022-08-25T20:33:22.841Z,50.36
2022-08-25T20:35:53.102Z,52.16
2022-08-25T20:38:22.330Z,50.15
2022-08-25T20:40:51.336Z,51.25
2022-08-25T20:43:20.857Z,49.54
2022-08-25T20:45:49.458Z,46.97
2022-08-25T20:48:18.299Z,48.18
2022-08-25T20:50:57.520Z,50.55
2022-08-25T20:53:27.007Z,48.78
2022-08-25T20:55:55.459Z,51.23
2022-08-25T20:58:24.107Z,51.55
2022-08-25T21:00:55.070Z,50.87
2022-08-25T21:03:23.545Z,51.90
2022-08-25T21:05:53.947Z,49.24
2022-08-25T21:08:23.778Z,51.58
2022-08-25T21:10:53.931Z,49.67
2022-08-25T21:13:22.832Z,51.14
2022-08-25T21:15:51.643Z,50.79
2022-08-25T21:18:20.676Z,53.32
2022-08-25T21:20:49.113Z,52.27
2022-08-25T21:23:17.578Z,52.94
2022-08-25T21:25:46.184Z,53.92
2022-08-25T21:28:14.989Z,53.11
2022-08-25T21:30:44.781Z,53.08
2022-08-25T21:33:15.890Z,54.14
2022-08-25T21:35:44.382Z,52.26
2022-08-25T21:38:15.348Z,52.93
2022-08-25T21:40:44.889Z,53.31
2022-08-25T21:43:13.615Z,54.20
2022-08-25T21:45:46.687Z,55.81
2022-08-25T21:48:16.320Z,52.47
2022-08-25T21:50:44.839Z,52.56
2022-08-25T21:53:13.447Z,52.64
2022-08-25T21:55:42.132Z,53.76
2022-08-25T21:58:10.592Z,54.91
2022-08-25T22:00:39.023Z,53.43
2022-08-25T22:03:07.797Z,55.12
2022-08-25T22:05:37.381Z,55.20
2022-08-25T22:08:05.879Z,53.57
2022-08-25T22:10:34.658Z,50.96
2022-08-25T22:13:03.830Z,51.32
2022-08-25T22:15:32.589Z,50.61
2022-08-25T22:18:01.171Z,52.73
2022-08-25T22:20:29.555Z,55.53
2022-08-25T22:23:00.096Z,54.85
2022-08-25T22:25:28.543Z,52.54
2022-08-25T22:27:57.289Z,55.20
2022-08-25T22:30:29.363Z,56.40
2022-08-25T22:32:58.913Z,56.86
2022-08-25T22:35:30.941Z,55.60
2022-08-25T22:38:02.783Z,56.37
2022-08-25T22:40:36.567Z,56.21
2022-08-25T22:43:07.816Z,56.58
2022-08-25T22:45:39.470Z,56.09
2022-08-25T22:48:08.701Z,57.20
2022-08-25T22:50:37.301Z,54.80
2022-08-25T22:53:06.846Z,55.84
2022-08-25T22:55:42.456Z,56.58
2022-08-25T22:58:11.705Z,57.03
2022-08-25T23:00:41.441Z,52.97
2022-08-25T23:03:11.276Z,55.67
2022-08-25T23:05:40.338Z,54.71
2022-08-25T23:08:08.875Z,55.81
2022-08-25T23:10:37.542Z,57.02
2022-08-25T23:13:07.176Z,56.33
2022-08-25T23:15:35.880Z,53.55
2022-08-25T23:18:05.329Z,54.98
2022-08-25T23:20:52.515Z,55.92
2022-08-25T23:23:21.152Z,58.10
2022-08-25T23:25:51.671Z,56.22
2022-08-25T23:28:20.983Z,57.73
2022-08-25T23:30:57.065Z,55.36
2022-08-25T23:33:28.480Z,53.87
2022-08-25T23:35:59.157Z,55.88
2022-08-25T23:38:29.077Z,56.55
2022-08-25T23:40:58.532Z,56.64
2022-08-25T23:43:28.027Z,55.98
2022-08-25T23:45:56.887Z,55.32
2022-08-25T23:48:25.347Z,57.79
2022-08-25T23:50:54.381Z,56.79
2022-08-25T23:53:23.908Z,57.04
2022-08-25T23:55:54.038Z,58.13
2022-08-25T23:58:23.409Z,55.33
